Avalon — PBSF — position and weather

sailwx.info

Track history (hours):
 
Tides and Currents Weather Stations Pressure Air Temp Water Temp Dewpoint Dewpoint Depression Visibility Wind Speed Wind Dir Waves Ship Positions

Avalon

Last reported at 2014-Oct-22 09:32 UTC. Time now 2014-Oct-23 11:08 UTC.
Position N 49°28' E 000°40'.

Length 89 m; draft 5.5 m.

Type: Cargo ship. MMSI: 246578000.

Date/timePositionNaut miles runAvg speedWind from/ knotsBaromVisibWave heightAir tempDewpointWater temp
2014-Oct-22 09:32N 49°28' E 000°40'8 7.8
2014-Oct-22 08:34N 49°29' E 000°28'1110.6
2014-Oct-22 07:33N 49°26' E 000°13'9 9.5
2014-Oct-22 06:34N 49°28' W 000°02'8 8.0
2014-Oct-22 05:33N 49°33' W 000°11'9 8.4
2014-Oct-22 04:30N 49°42' W 000°09'85 5.9
2014-Oct-21 14:05N 50°50' E 001°12'4 5.7
2014-Oct-21 13:22N 50°53' E 001°17'4 4.9
2014-Oct-21 12:34N 50°56' E 001°21'4 3.7
2014-Oct-21 11:33N 50°59' E 001°24'3 2.9
2014-Oct-21 10:33N 51°01' E 001°27'2 2.3
2014-Oct-21 09:34N 51°03' E 001°30'2 2.4
2014-Oct-21 08:34N 51°05' E 001°33'3 3.3
2014-Oct-21 07:34N 51°07' E 001°37'5 5.2
2014-Oct-21 06:34N 51°10' E 001°42'7 6.8
2014-Oct-21 05:34N 51°16' E 001°50'8 7.8
2014-Oct-21 04:34N 51°22' E 001°56'6 6.0
2014-Oct-21 03:33N 51°23' E 002°06'8 7.6
2014-Oct-21 02:34N 51°20' E 002°17'7 7.0
2014-Oct-21 01:33N 51°22' E 002°28'7 6.6
2014-Oct-21 00:33N 51°23' E 002°39'6 5.9
2014-Oct-20 23:33N 51°22' E 002°48'7 7.1
2014-Oct-20 22:32N 51°24' E 002°59'7 6.4
2014-Oct-20 21:30N 51°24' E 003°10'7 6.9
2014-Oct-20 20:32N 51°24' E 003°21'8 8.0
2014-Oct-20 19:33N 51°26' E 003°33'6 6.4
2014-Oct-20 18:33N 51°27' E 003°43'0 0.0
2014-Oct-20 17:31N 51°27' E 003°43'0 0.0
2014-Oct-20 16:31N 51°27' E 003°43'0 0.0
2014-Oct-20 15:31N 51°27' E 003°43'0 0.0
2014-Oct-20 14:31N 51°27' E 003°43'0 0.0
2014-Oct-20 13:31N 51°27' E 003°43'0 0.0
2014-Oct-20 12:31N 51°27' E 003°43'0 0.0
2014-Oct-20 11:31N 51°27' E 003°43'0 0.0
2014-Oct-20 10:31N 51°27' E 003°43'0 0.0
2014-Oct-20 09:31N 51°27' E 003°43'0 0.0
2014-Oct-20 08:31N 51°27' E 003°43'0 0.0
2014-Oct-20 07:31N 51°27' E 003°43'0 0.0
2014-Oct-20 06:25N 51°27' E 003°43'0 0.0
2014-Oct-20 05:31N 51°27' E 003°43'0 0.0
2014-Oct-20 04:31N 51°27' E 003°43'0 0.0
2014-Oct-20 03:31N 51°27' E 003°43'0 0.0
2014-Oct-20 02:31N 51°27' E 003°43'0 0.0
2014-Oct-20 01:31N 51°27' E 003°43'0 0.0
2014-Oct-20 00:31N 51°27' E 003°43'0 0.0
2014-Oct-19 23:31N 51°27' E 003°43'0 0.0
2014-Oct-19 22:31N 51°27' E 003°43'0 0.0
2014-Oct-19 21:31N 51°27' E 003°43'0 0.0
2014-Oct-19 20:31N 51°27' E 003°43'0 0.0
2014-Oct-19 19:31N 51°27' E 003°43'0 0.0
2014-Oct-19 18:31N 51°27' E 003°43'0 0.0
2014-Oct-19 17:28N 51°27' E 003°43'0 0.0
2014-Oct-19 16:31N 51°27' E 003°43'0 0.0
2014-Oct-19 15:31N 51°27' E 003°43'0 0.0
2014-Oct-19 14:31N 51°27' E 003°43'0 0.0
2014-Oct-19 13:31N 51°27' E 003°43'0 0.0
2014-Oct-19 12:31N 51°27' E 003°43'0 0.0
2014-Oct-19 11:31N 51°27' E 003°43'0 0.0
2014-Oct-19 10:31N 51°27' E 003°43'0 0.0
2014-Oct-19 09:31N 51°27' E 003°43'0 0.0
2014-Oct-19 08:31N 51°27' E 003°43'0 0.0
2014-Oct-19 07:31N 51°27' E 003°43'0 0.0
2014-Oct-19 06:31N 51°27' E 003°43'0 0.0
2014-Oct-19 05:31N 51°27' E 003°43'0 0.0
2014-Oct-19 04:31N 51°27' E 003°43'0 0.0
2014-Oct-19 03:31N 51°27' E 003°43'0 0.0
2014-Oct-19 02:31N 51°27' E 003°43'0 0.0
2014-Oct-19 01:31N 51°27' E 003°43'0 0.0
2014-Oct-19 00:31N 51°27' E 003°43'0 0.0
2014-Oct-18 23:31N 51°27' E 003°43'0 0.0
2014-Oct-18 22:28N 51°27' E 003°43'0 0.0
2014-Oct-18 21:31N 51°27' E 003°43'0 0.0
2014-Oct-18 20:31N 51°27' E 003°43'0 0.0
2014-Oct-18 19:31N 51°27' E 003°43'0 0.0
2014-Oct-18 18:31N 51°27' E 003°43'0 0.0
2014-Oct-18 17:31N 51°27' E 003°43'0 0.0
2014-Oct-18 16:31N 51°27' E 003°43'0 0.0
2014-Oct-18 15:31N 51°27' E 003°43'0 0.0
2014-Oct-18 14:31N 51°27' E 003°43'0 0.0
2014-Oct-18 13:31N 51°27' E 003°43'0 0.0
2014-Oct-18 12:31N 51°27' E 003°43'0 0.1
2014-Oct-18 11:31N 51°27' E 003°43'0 0.1
2014-Oct-18 10:31N 51°27' E 003°43'0 0.0
2014-Oct-18 09:31N 51°27' E 003°43'0 0.0
2014-Oct-18 08:25N 51°27' E 003°43'0 0.0
2014-Oct-18 07:31N 51°27' E 003°43'0 0.0
2014-Oct-18 06:31N 51°27' E 003°43'0 0.0
2014-Oct-18 05:31N 51°27' E 003°43'0 0.0
2014-Oct-18 04:31N 51°27' E 003°43'0 0.0
2014-Oct-18 03:28N 51°27' E 003°43'0 0.0
2014-Oct-18 02:31N 51°27' E 003°43'0 0.0
2014-Oct-18 01:31N 51°27' E 003°43'0 0.0
2014-Oct-18 00:31N 51°27' E 003°43'0 0.0
2014-Oct-17 23:31N 51°27' E 003°43'0 0.0
2014-Oct-17 22:31N 51°27' E 003°43'0 0.0
2014-Oct-17 21:31N 51°27' E 003°43'0 0.0
2014-Oct-17 20:31N 51°27' E 003°43'0 0.0
2014-Oct-17 19:31N 51°27' E 003°43'0 0.0
2014-Oct-17 18:31N 51°27' E 003°43'0 0.0
2014-Oct-17 17:31N 51°27' E 003°43'0 0.0
2014-Oct-17 16:31N 51°27' E 003°43'1 1.3
2014-Oct-17 15:33N 51°27' E 003°41'1010.2
2014-Oct-17 14:33N 51°24' E 003°25'1010.4
2014-Oct-17 13:34N 51°22' E 003°09'1110.7
2014-Oct-17 12:33N 51°22' E 002°52'9 9.4
2014-Oct-17 11:33N 51°22' E 002°37'9 9.4
2014-Oct-17 10:34N 51°19' E 002°22'9 9.4
2014-Oct-17 09:33N 51°14' E 002°10'10 9.7
2014-Oct-17 08:34N 51°10' E 001°56'1010.1
2014-Oct-17 07:34N 51°05' E 001°42'1010.4
2014-Oct-17 06:33N 50°57' E 001°30'1110.1
2014-Oct-17 05:30N 50°48' E 001°24'21 9.4
2014-Oct-17 03:19N 50°32' E 001°02'7 9.3
2014-Oct-17 02:34N 50°29' E 000°52'10 9.6
2014-Oct-17 01:34N 50°27' E 000°37'10 9.5
2014-Oct-17 00:34N 50°24' E 000°23'10 9.2
2014-Oct-16 23:28N 50°22' E 000°07'98 8.7
2014-Oct-16 12:19N 50°13' W 002°25'7 9.4
2014-Oct-16 11:32N 50°12' W 002°36'9 9.0
2014-Oct-16 10:34N 50°11' W 002°49'9 8.6
2014-Oct-16 09:34N 50°09' W 003°03'8 8.2
2014-Oct-16 08:34N 50°08' W 003°15'8 8.0
2014-Oct-16 07:33N 50°06' W 003°27'8 7.8
2014-Oct-16 06:33N 50°04' W 003°39'149 5.4
2014-Oct-15 03:08N 51°05' W 007°13'3 5.2
2014-Oct-15 02:31N 51°07' W 007°17'6 5.8
2014-Oct-15 01:30N 51°12' W 007°23'6 6.2
2014-Oct-15 00:32N 51°16' W 007°29'6 6.4
2014-Oct-14 23:33N 51°21' W 007°36'7 6.6
2014-Oct-14 22:33N 51°26' W 007°44'7 6.7
2014-Oct-14 21:33N 51°30' W 007°51'7 6.8
2014-Oct-14 20:34N 51°35' W 007°59'7 6.6
2014-Oct-14 19:33N 51°40' W 008°06'7 6.5
2014-Oct-14 18:33N 51°45' W 008°14'7 6.6
2014-Oct-14 17:33N 51°51' W 008°18'2 1.6
2014-Oct-14 16:31N 51°52' W 008°20'0 0.0
2014-Oct-14 15:31N 51°52' W 008°20'0 0.0
2014-Oct-14 14:31N 51°52' W 008°20'0 0.0
2014-Oct-14 13:31N 51°52' W 008°20'0 0.0
2014-Oct-14 12:31N 51°52' W 008°20'0 0.0
2014-Oct-14 11:31N 51°52' W 008°20'0 0.0
2014-Oct-14 10:31N 51°52' W 008°20'0 0.0
2014-Oct-14 09:31N 51°52' W 008°20'0 0.0
2014-Oct-14 08:31N 51°52' W 008°20'0 0.0
2014-Oct-14 07:31N 51°52' W 008°20'0 0.0
2014-Oct-14 06:31N 51°52' W 008°20'0 0.0
2014-Oct-14 05:31N 51°52' W 008°20'0 0.0
2014-Oct-14 04:31N 51°52' W 008°20'0 0.0
2014-Oct-14 03:31N 51°52' W 008°20'0 0.0
2014-Oct-14 02:31N 51°52' W 008°20'0 0.0
2014-Oct-14 01:31N 51°52' W 008°20'0 0.0
2014-Oct-14 00:31N 51°52' W 008°20'0 0.0
2014-Oct-13 23:31N 51°52' W 008°20'0 0.0
2014-Oct-13 22:31N 51°52' W 008°20'0 0.0
2014-Oct-13 21:31N 51°52' W 008°20'0 0.0
2014-Oct-13 20:31N 51°52' W 008°20'0 0.0
2014-Oct-13 19:31N 51°52' W 008°20'0 0.0
2014-Oct-13 18:31N 51°52' W 008°20'0 0.1
2014-Oct-13 17:31N 51°52' W 008°20'0 0.0
2014-Oct-13 16:31N 51°52' W 008°20'0 0.0
2014-Oct-13 15:31N 51°52' W 008°20'0 0.0
2014-Oct-13 14:31N 51°52' W 008°20'0 0.0
2014-Oct-13 13:31N 51°52' W 008°20'0 0.0
2014-Oct-13 12:31N 51°52' W 008°20'1 1.6
2014-Oct-13 11:34N 51°51' W 008°20'6 5.8
2014-Oct-13 10:34N 51°46' W 008°15'9 9.1
2014-Oct-13 09:33N 51°39' W 008°05'9 8.9
2014-Oct-13 08:34N 51°32' W 007°56'9 8.6
2014-Oct-13 07:34N 51°26' W 007°46'9 8.5
2014-Oct-13 06:33N 51°20' W 007°36'  
Track history (hours):
 
Tides and Currents Weather Stations Pressure Air Temp Water Temp Dewpoint Dewpoint Depression Visibility Wind Speed Wind Dir Waves Ship Positions

Avalon

Last reported at 2014-Oct-22 09:32 UTC. Time now 2014-Oct-23 11:08 UTC.
Position N 49°28' E 000°40'.

Length 89 m; draft 5.5 m.

Type: Cargo ship. MMSI: 246578000.

Date/timePositionNaut miles runAvg speedWind from/ knotsBaromVisibWave heightAir tempDewpointWater temp
2014-Oct-22 09:32N 49°28' E 000°40'8 7.8
2014-Oct-22 08:34N 49°29' E 000°28'1110.6
2014-Oct-22 07:33N 49°26' E 000°13'9 9.5
2014-Oct-22 06:34N 49°28' W 000°02'8 8.0
2014-Oct-22 05:33N 49°33' W 000°11'9 8.4
2014-Oct-22 04:30N 49°42' W 000°09'85 5.9
2014-Oct-21 14:05N 50°50' E 001°12'4 5.7
2014-Oct-21 13:22N 50°53' E 001°17'4 4.9
2014-Oct-21 12:34N 50°56' E 001°21'4 3.7
2014-Oct-21 11:33N 50°59' E 001°24'3 2.9
2014-Oct-21 10:33N 51°01' E 001°27'2 2.3
2014-Oct-21 09:34N 51°03' E 001°30'2 2.4
2014-Oct-21 08:34N 51°05' E 001°33'3 3.3
2014-Oct-21 07:34N 51°07' E 001°37'5 5.2
2014-Oct-21 06:34N 51°10' E 001°42'7 6.8
2014-Oct-21 05:34N 51°16' E 001°50'8 7.8
2014-Oct-21 04:34N 51°22' E 001°56'6 6.0
2014-Oct-21 03:33N 51°23' E 002°06'8 7.6
2014-Oct-21 02:34N 51°20' E 002°17'7 7.0
2014-Oct-21 01:33N 51°22' E 002°28'7 6.6
2014-Oct-21 00:33N 51°23' E 002°39'6 5.9
2014-Oct-20 23:33N 51°22' E 002°48'7 7.1
2014-Oct-20 22:32N 51°24' E 002°59'7 6.4
2014-Oct-20 21:30N 51°24' E 003°10'7 6.9
2014-Oct-20 20:32N 51°24' E 003°21'8 8.0
2014-Oct-20 19:33N 51°26' E 003°33'6 6.4
2014-Oct-20 18:33N 51°27' E 003°43'0 0.0
2014-Oct-20 17:31N 51°27' E 003°43'0 0.0
2014-Oct-20 16:31N 51°27' E 003°43'0 0.0
2014-Oct-20 15:31N 51°27' E 003°43'0 0.0
2014-Oct-20 14:31N 51°27' E 003°43'0 0.0
2014-Oct-20 13:31N 51°27' E 003°43'0 0.0
2014-Oct-20 12:31N 51°27' E 003°43'0 0.0
2014-Oct-20 11:31N 51°27' E 003°43'0 0.0
2014-Oct-20 10:31N 51°27' E 003°43'0 0.0
2014-Oct-20 09:31N 51°27' E 003°43'0 0.0
2014-Oct-20 08:31N 51°27' E 003°43'0 0.0
2014-Oct-20 07:31N 51°27' E 003°43'0 0.0
2014-Oct-20 06:25N 51°27' E 003°43'0 0.0
2014-Oct-20 05:31N 51°27' E 003°43'0 0.0
2014-Oct-20 04:31N 51°27' E 003°43'0 0.0
2014-Oct-20 03:31N 51°27' E 003°43'0 0.0
2014-Oct-20 02:31N 51°27' E 003°43'0 0.0
2014-Oct-20 01:31N 51°27' E 003°43'0 0.0
2014-Oct-20 00:31N 51°27' E 003°43'0 0.0
2014-Oct-19 23:31N 51°27' E 003°43'0 0.0
2014-Oct-19 22:31N 51°27' E 003°43'0 0.0
2014-Oct-19 21:31N 51°27' E 003°43'0 0.0
2014-Oct-19 20:31N 51°27' E 003°43'0 0.0
2014-Oct-19 19:31N 51°27' E 003°43'0 0.0
2014-Oct-19 18:31N 51°27' E 003°43'0 0.0
2014-Oct-19 17:28N 51°27' E 003°43'0 0.0
2014-Oct-19 16:31N 51°27' E 003°43'0 0.0
2014-Oct-19 15:31N 51°27' E 003°43'0 0.0
2014-Oct-19 14:31N 51°27' E 003°43'0 0.0
2014-Oct-19 13:31N 51°27' E 003°43'0 0.0
2014-Oct-19 12:31N 51°27' E 003°43'0 0.0
2014-Oct-19 11:31N 51°27' E 003°43'0 0.0
2014-Oct-19 10:31N 51°27' E 003°43'0 0.0
2014-Oct-19 09:31N 51°27' E 003°43'0 0.0
2014-Oct-19 08:31N 51°27' E 003°43'0 0.0
2014-Oct-19 07:31N 51°27' E 003°43'0 0.0
2014-Oct-19 06:31N 51°27' E 003°43'0 0.0
2014-Oct-19 05:31N 51°27' E 003°43'0 0.0
2014-Oct-19 04:31N 51°27' E 003°43'0 0.0
2014-Oct-19 03:31N 51°27' E 003°43'0 0.0
2014-Oct-19 02:31N 51°27' E 003°43'0 0.0
2014-Oct-19 01:31N 51°27' E 003°43'0 0.0
2014-Oct-19 00:31N 51°27' E 003°43'0 0.0
2014-Oct-18 23:31N 51°27' E 003°43'0 0.0
2014-Oct-18 22:28N 51°27' E 003°43'0 0.0
2014-Oct-18 21:31N 51°27' E 003°43'0 0.0
2014-Oct-18 20:31N 51°27' E 003°43'0 0.0
2014-Oct-18 19:31N 51°27' E 003°43'0 0.0
2014-Oct-18 18:31N 51°27' E 003°43'0 0.0
2014-Oct-18 17:31N 51°27' E 003°43'0 0.0
2014-Oct-18 16:31N 51°27' E 003°43'0 0.0
2014-Oct-18 15:31N 51°27' E 003°43'0 0.0
2014-Oct-18 14:31N 51°27' E 003°43'0 0.0
2014-Oct-18 13:31N 51°27' E 003°43'0 0.0
2014-Oct-18 12:31N 51°27' E 003°43'0 0.1
2014-Oct-18 11:31N 51°27' E 003°43'0 0.1
2014-Oct-18 10:31N 51°27' E 003°43'0 0.0
2014-Oct-18 09:31N 51°27' E 003°43'0 0.0
2014-Oct-18 08:25N 51°27' E 003°43'0 0.0
2014-Oct-18 07:31N 51°27' E 003°43'0 0.0
2014-Oct-18 06:31N 51°27' E 003°43'0 0.0
2014-Oct-18 05:31N 51°27' E 003°43'0 0.0
2014-Oct-18 04:31N 51°27' E 003°43'0 0.0
2014-Oct-18 03:28N 51°27' E 003°43'0 0.0
2014-Oct-18 02:31N 51°27' E 003°43'0 0.0
2014-Oct-18 01:31N 51°27' E 003°43'0 0.0
2014-Oct-18 00:31N 51°27' E 003°43'0 0.0
2014-Oct-17 23:31N 51°27' E 003°43'0 0.0
2014-Oct-17 22:31N 51°27' E 003°43'0 0.0
2014-Oct-17 21:31N 51°27' E 003°43'0 0.0
2014-Oct-17 20:31N 51°27' E 003°43'0 0.0
2014-Oct-17 19:31N 51°27' E 003°43'0 0.0
2014-Oct-17 18:31N 51°27' E 003°43'0 0.0
2014-Oct-17 17:31N 51°27' E 003°43'0 0.0
2014-Oct-17 16:31N 51°27' E 003°43'1 1.3
2014-Oct-17 15:33N 51°27' E 003°41'1010.2
2014-Oct-17 14:33N 51°24' E 003°25'1010.4
2014-Oct-17 13:34N 51°22' E 003°09'1110.7
2014-Oct-17 12:33N 51°22' E 002°52'9 9.4
2014-Oct-17 11:33N 51°22' E 002°37'9 9.4
2014-Oct-17 10:34N 51°19' E 002°22'9 9.4
2014-Oct-17 09:33N 51°14' E 002°10'10 9.7
2014-Oct-17 08:34N 51°10' E 001°56'1010.1
2014-Oct-17 07:34N 51°05' E 001°42'1010.4
2014-Oct-17 06:33N 50°57' E 001°30'1110.1
2014-Oct-17 05:30N 50°48' E 001°24'21 9.4
2014-Oct-17 03:19N 50°32' E 001°02'7 9.3
2014-Oct-17 02:34N 50°29' E 000°52'10 9.6
2014-Oct-17 01:34N 50°27' E 000°37'10 9.5
2014-Oct-17 00:34N 50°24' E 000°23'10 9.2
2014-Oct-16 23:28N 50°22' E 000°07'98 8.7
2014-Oct-16 12:19N 50°13' W 002°25'7 9.4
2014-Oct-16 11:32N 50°12' W 002°36'9 9.0
2014-Oct-16 10:34N 50°11' W 002°49'9 8.6
2014-Oct-16 09:34N 50°09' W 003°03'8 8.2
2014-Oct-16 08:34N 50°08' W 003°15'8 8.0
2014-Oct-16 07:33N 50°06' W 003°27'8 7.8
2014-Oct-16 06:33N 50°04' W 003°39'149 5.4
2014-Oct-15 03:08N 51°05' W 007°13'3 5.2
2014-Oct-15 02:31N 51°07' W 007°17'6 5.8
2014-Oct-15 01:30N 51°12' W 007°23'6 6.2
2014-Oct-15 00:32N 51°16' W 007°29'6 6.4
2014-Oct-14 23:33N 51°21' W 007°36'7 6.6
2014-Oct-14 22:33N 51°26' W 007°44'7 6.7
2014-Oct-14 21:33N 51°30' W 007°51'7 6.8
2014-Oct-14 20:34N 51°35' W 007°59'7 6.6
2014-Oct-14 19:33N 51°40' W 008°06'7 6.5
2014-Oct-14 18:33N 51°45' W 008°14'7 6.6
2014-Oct-14 17:33N 51°51' W 008°18'2 1.6
2014-Oct-14 16:31N 51°52' W 008°20'0 0.0
2014-Oct-14 15:31N 51°52' W 008°20'0 0.0
2014-Oct-14 14:31N 51°52' W 008°20'0 0.0
2014-Oct-14 13:31N 51°52' W 008°20'0 0.0
2014-Oct-14 12:31N 51°52' W 008°20'0 0.0
2014-Oct-14 11:31N 51°52' W 008°20'0 0.0
2014-Oct-14 10:31N 51°52' W 008°20'0 0.0
2014-Oct-14 09:31N 51°52' W 008°20'0 0.0
2014-Oct-14 08:31N 51°52' W 008°20'0 0.0
2014-Oct-14 07:31N 51°52' W 008°20'0 0.0
2014-Oct-14 06:31N 51°52' W 008°20'0 0.0
2014-Oct-14 05:31N 51°52' W 008°20'0 0.0
2014-Oct-14 04:31N 51°52' W 008°20'0 0.0
2014-Oct-14 03:31N 51°52' W 008°20'0 0.0
2014-Oct-14 02:31N 51°52' W 008°20'0 0.0
2014-Oct-14 01:31N 51°52' W 008°20'0 0.0
2014-Oct-14 00:31N 51°52' W 008°20'0 0.0
2014-Oct-13 23:31N 51°52' W 008°20'0 0.0
2014-Oct-13 22:31N 51°52' W 008°20'0 0.0
2014-Oct-13 21:31N 51°52' W 008°20'0 0.0
2014-Oct-13 20:31N 51°52' W 008°20'0 0.0
2014-Oct-13 19:31N 51°52' W 008°20'0 0.0
2014-Oct-13 18:31N 51°52' W 008°20'0 0.1
2014-Oct-13 17:31N 51°52' W 008°20'0 0.0
2014-Oct-13 16:31N 51°52' W 008°20'0 0.0
2014-Oct-13 15:31N 51°52' W 008°20'0 0.0
2014-Oct-13 14:31N 51°52' W 008°20'0 0.0
2014-Oct-13 13:31N 51°52' W 008°20'0 0.0
2014-Oct-13 12:31N 51°52' W 008°20'1 1.6
2014-Oct-13 11:34N 51°51' W 008°20'6 5.8
2014-Oct-13 10:34N 51°46' W 008°15'9 9.1
2014-Oct-13 09:33N 51°39' W 008°05'9 8.9
2014-Oct-13 08:34N 51°32' W 007°56'9 8.6
2014-Oct-13 07:34N 51°26' W 007°46'9 8.5
2014-Oct-13 06:33N 51°20' W 007°36'  

Dump ship's entire track history